Time;durP1;ratioP1;P1;durP2;ratioP2;P2;SDS_P1;SDS_P2;PMS_P1;PMS_P2;Temp;Humidity;BMP_temperature;BMP_pressure;BME280_temperature;BME280_humidity;BME280_pressure;Samples;Min_cycle;Max_cycle;Signal;HPM_P1;HPM_P2
2021/07/29 00:01:29;;;;;;;15.80;15.10;;;15.60;99.90;;;;;;5055073;28;20456;-71
2021/07/29 00:03:56;;;;;;;15.50;14.80;;;15.70;99.90;;;;;;5061301;28;20784;-70
2021/07/29 00:06:23;;;;;;;16.10;15.30;;;15.60;99.90;;;;;;5053720;28;20467;-68
2021/07/29 00:08:52;;;;;;;16.07;15.27;;;15.60;99.90;;;;;;5058779;28;20568;-70
2021/07/29 00:11:20;;;;;;;16.27;15.47;;;15.60;99.90;;;;;;5056344;28;20461;-68
2021/07/29 00:13:50;;;;;;;17.20;16.30;;;15.60;99.90;;;;;;5059356;28;20867;-67
2021/07/29 00:16:20;;;;;;;17.73;16.83;;;15.60;99.90;;;;;;5059070;28;20507;-68
2021/07/29 00:19:03;;;;;;;24.40;22.70;;;15.80;99.90;;;;;;5060226;28;20550;-69
2021/07/29 00:21:32;;;;;;;24.97;23.00;;;15.80;99.90;;;;;;5060231;28;20551;-67
2021/07/29 00:24:00;;;;;;;24.77;23.03;;;15.80;99.90;;;;;;5058723;28;20464;-68
2021/07/29 00:26:27;;;;;;;22.33;20.90;;;15.80;99.90;;;;;;5059754;28;21020;-68
2021/07/29 00:28:54;;;;;;;23.07;21.37;;;15.70;99.90;;;;;;5058542;28;20479;-68
2021/07/29 00:31:28;;;;;;;36.33;23.30;;;15.60;99.90;;;;;;5058021;28;20451;-69
2021/07/29 00:33:55;;;;;;;22.17;20.50;;;15.60;99.90;;;;;;5051963;28;20462;-69
2021/07/29 00:36:23;;;;;;;21.17;19.77;;;15.50;99.90;;;;;;5062205;28;20471;-68
2021/07/29 00:38:51;;;;;;;22.50;20.50;;;15.50;99.90;;;;;;5058095;28;20451;-69
2021/07/29 00:41:17;;;;;;;23.20;20.90;;;15.30;99.90;;;;;;5056769;28;20463;-70
2021/07/29 00:43:45;;;;;;;23.30;20.73;;;15.30;99.90;;;;;;5053512;28;20483;-68
2021/07/29 00:46:14;;;;;;;22.33;20.70;;;15.30;99.90;;;;;;5056117;28;20872;-71
2021/07/29 00:48:45;;;;;;;23.07;21.20;;;15.40;99.90;;;;;;5054961;28;20953;-68
2021/07/29 00:51:12;;;;;;;22.87;20.90;;;15.30;99.90;;;;;;5054806;28;20463;-68
2021/07/29 00:53:40;;;;;;;21.50;19.87;;;15.30;99.90;;;;;;5054765;28;20525;-68
2021/07/29 00:56:07;;;;;;;22.43;20.93;;;15.40;99.90;;;;;;5056959;28;20471;-68
2021/07/29 00:58:34;;;;;;;22.90;21.20;;;15.30;99.90;;;;;;5055029;28;20593;-68
2021/07/29 01:01:01;;;;;;;21.33;19.63;;;15.40;99.90;;;;;;5056779;28;20866;-68
2021/07/29 01:03:30;;;;;;;22.20;20.63;;;15.30;99.90;;;;;;5056042;28;20472;-68
2021/07/29 01:05:58;;;;;;;22.17;20.60;;;15.30;99.90;;;;;;5057242;28;20470;-68
2021/07/29 01:08:25;;;;;;;22.40;20.30;;;15.30;99.90;;;;;;5056197;28;20574;-68
2021/07/29 01:10:52;;;;;;;20.07;18.77;;;15.20;99.90;;;;;;5056772;28;20512;-71
2021/07/29 01:13:19;;;;;;;22.13;19.40;;;15.20;99.90;;;;;;5054527;28;20541;-71
2021/07/29 01:15:46;;;;;;;22.13;20.10;;;15.20;99.90;;;;;;5057156;28;20460;-69
2021/07/29 01:18:12;;;;;;;19.83;18.50;;;15.10;99.90;;;;;;5049128;28;20664;-68
2021/07/29 01:20:41;;;;;;;19.83;18.30;;;15.10;99.90;;;;;;5056703;28;20460;-68
2021/07/29 01:23:07;;;;;;;21.27;19.73;;;15.10;99.90;;;;;;5058843;28;20452;-68
2021/07/29 01:25:34;;;;;;;20.67;18.90;;;15.10;99.90;;;;;;5054173;28;20805;-70
2021/07/29 01:28:01;;;;;;;20.00;18.70;;;15.10;99.90;;;;;;5056163;28;21004;-68
2021/07/29 01:30:29;;;;;;;22.03;20.33;;;15.10;99.90;;;;;;5053257;28;20464;-68
2021/07/29 01:32:56;;;;;;;20.90;19.43;;;15.10;99.90;;;;;;5063315;28;20554;-68
2021/07/29 01:35:23;;;;;;;20.73;18.80;;;15.10;99.90;;;;;;5054920;28;20466;-68
2021/07/29 01:37:52;;;;;;;21.50;19.67;;;15.10;99.90;;;;;;5054397;28;20470;-68
2021/07/29 01:40:19;;;;;;;20.43;18.93;;;15.00;99.90;;;;;;5057057;28;20476;-70
2021/07/29 01:42:46;;;;;;;21.33;19.47;;;15.10;99.90;;;;;;5053031;28;20506;-68
2021/07/29 01:45:13;;;;;;;20.47;18.87;;;15.00;99.90;;;;;;5057848;28;20451;-68
2021/07/29 01:47:40;;;;;;;21.13;19.17;;;15.00;99.90;;;;;;5060164;28;20462;-70
2021/07/29 01:50:08;;;;;;;22.03;20.10;;;15.00;99.90;;;;;;5063755;28;20463;-67
2021/07/29 01:52:38;;;;;;;20.67;19.07;;;15.00;99.90;;;;;;5052297;28;20459;-68
2021/07/29 01:55:07;;;;;;;22.33;20.43;;;15.00;99.90;;;;;;5052395;28;20459;-68
2021/07/29 01:57:35;;;;;;;21.00;19.43;;;15.00;99.90;;;;;;5051148;28;20479;-69
2021/07/29 02:00:02;;;;;;;21.47;19.87;;;14.90;99.90;;;;;;5053590;28;20459;-67
2021/07/29 02:02:29;;;;;;;20.60;19.20;;;14.90;99.90;;;;;;5059132;28;20458;-69
2021/07/29 02:04:56;;;;;;;21.23;19.20;;;14.90;99.90;;;;;;5055422;28;20466;-70
2021/07/29 02:07:23;;;;;;;20.80;19.20;;;14.90;99.90;;;;;;5058842;28;20463;-68
2021/07/29 02:09:52;;;;;;;21.03;19.33;;;14.80;99.90;;;;;;5056070;28;20486;-68
2021/07/29 02:12:20;;;;;;;21.60;19.63;;;14.90;99.90;;;;;;5061458;28;20982;-69
2021/07/29 02:14:47;;;;;;;22.23;19.83;;;14.90;99.90;;;;;;5055173;28;20493;-68
2021/07/29 02:17:14;;;;;;;21.60;19.77;;;14.90;99.90;;;;;;5053661;28;21101;-68
2021/07/29 02:19:41;;;;;;;20.77;18.83;;;14.90;99.90;;;;;;5058798;28;20549;-69
2021/07/29 02:22:09;;;;;;;21.43;19.73;;;14.90;99.90;;;;;;5055139;28;20853;-68
2021/07/29 02:24:36;;;;;;;21.77;20.27;;;14.90;99.90;;;;;;5053402;28;20839;-71
2021/07/29 02:27:03;;;;;;;21.10;19.70;;;14.90;99.90;;;;;;5052067;28;20614;-68
2021/07/29 02:29:33;;;;;;;21.90;19.87;;;14.90;99.90;;;;;;5051695;28;20884;-68
2021/07/29 02:32:01;;;;;;;21.47;19.40;;;14.90;99.90;;;;;;5055730;28;20463;-68
2021/07/29 02:34:30;;;;;;;21.90;19.73;;;14.90;99.90;;;;;;5057101;28;20464;-68
2021/07/29 02:36:56;;;;;;;20.13;18.87;;;14.90;99.90;;;;;;5056515;28;20767;-68
2021/07/29 02:39:24;;;;;;;20.70;19.30;;;14.90;99.90;;;;;;5054999;28;20467;-69
2021/07/29 02:41:51;;;;;;;22.60;20.63;;;14.90;99.90;;;;;;5056632;28;20459;-68
2021/07/29 02:44:18;;;;;;;21.60;19.90;;;14.90;99.90;;;;;;5051802;28;20494;-68
2021/07/29 02:46:47;;;;;;;21.20;19.50;;;15.00;99.90;;;;;;5058704;28;20471;-71
2021/07/29 02:49:14;;;;;;;20.17;18.63;;;15.00;99.90;;;;;;5049219;28;20491;-68
2021/07/29 02:51:41;;;;;;;20.80;18.77;;;15.00;99.90;;;;;;5060328;28;21034;-69
2021/07/29 02:54:09;;;;;;;20.10;18.67;;;15.00;99.90;;;;;;5060953;28;20449;-69
2021/07/29 02:56:36;;;;;;;21.77;18.50;;;15.00;99.90;;;;;;5061871;28;20838;-70
2021/07/29 02:59:04;;;;;;;19.53;17.83;;;15.10;99.90;;;;;;5055648;28;20514;-69
2021/07/29 03:01:31;;;;;;;20.43;18.43;;;15.10;99.90;;;;;;5058593;28;20525;-70
2021/07/29 03:04:00;;;;;;;19.60;18.10;;;15.10;99.90;;;;;;5057304;28;20452;-70
2021/07/29 03:06:26;;;;;;;19.40;17.63;;;15.10;99.90;;;;;;5063688;28;20454;-68
2021/07/29 03:08:54;;;;;;;20.87;19.10;;;15.20;99.90;;;;;;5058685;28;20821;-70
2021/07/29 03:11:21;;;;;;;30.77;18.73;;;15.20;99.90;;;;;;5058113;28;20546;-68
2021/07/29 03:13:48;;;;;;;19.20;17.70;;;15.20;99.90;;;;;;5058106;28;20459;-71
2021/07/29 03:16:17;;;;;;;20.00;18.30;;;15.20;99.90;;;;;;5059259;28;20515;-71
2021/07/29 03:18:44;;;;;;;19.33;17.87;;;15.20;99.90;;;;;;5050263;28;20986;-70
2021/07/29 03:21:14;;;;;;;19.17;17.37;;;15.20;99.90;;;;;;5056949;28;20459;-68
2021/07/29 03:23:41;;;;;;;19.53;17.97;;;15.30;99.90;;;;;;5055880;28;20459;-67
2021/07/29 03:26:07;;;;;;;18.93;17.30;;;15.30;99.90;;;;;;5051567;28;20478;-70
2021/07/29 03:28:35;;;;;;;18.30;17.00;;;15.30;99.90;;;;;;5061943;28;21152;-68
2021/07/29 03:31:02;;;;;;;18.60;17.20;;;15.30;99.90;;;;;;5062856;28;20458;-68
2021/07/29 03:33:28;;;;;;;17.80;16.17;;;15.30;99.90;;;;;;5057440;28;20921;-68
2021/07/29 03:35:55;;;;;;;18.53;16.83;;;15.30;99.90;;;;;;5059285;28;20461;-70
2021/07/29 03:38:25;;;;;;;16.80;15.50;;;15.30;99.90;;;;;;5054919;28;20523;-68
2021/07/29 03:40:52;;;;;;;18.37;16.73;;;15.30;99.90;;;;;;5057396;28;20452;-68
2021/07/29 03:43:19;;;;;;;17.10;15.70;;;15.30;99.90;;;;;;5064679;28;20471;-69
2021/07/29 03:45:46;;;;;;;17.10;16.00;;;15.30;99.90;;;;;;5057244;28;20462;-68
2021/07/29 03:48:13;;;;;;;18.00;16.40;;;15.30;99.90;;;;;;5057965;28;20460;-69
2021/07/29 03:50:41;;;;;;;18.43;16.77;;;15.40;99.90;;;;;;5060444;28;20462;-68
2021/07/29 03:53:08;;;;;;;17.97;16.60;;;15.30;99.90;;;;;;5057031;28;21057;-68
2021/07/29 03:55:38;;;;;;;31.67;16.07;;;15.30;99.90;;;;;;5061285;28;20473;-69
2021/07/29 03:58:05;;;;;;;16.87;15.87;;;15.30;99.90;;;;;;5056539;28;20482;-69
2021/07/29 04:00:32;;;;;;;17.60;15.97;;;15.30;99.90;;;;;;5059299;28;20455;-68
2021/07/29 04:03:01;;;;;;;16.97;15.37;;;15.30;99.90;;;;;;5058086;28;20465;-68
2021/07/29 04:05:28;;;;;;;16.23;15.03;;;15.20;99.90;;;;;;5051845;28;20820;-68
2021/07/29 04:07:55;;;;;;;16.20;15.17;;;15.20;99.90;;;;;;5059569;28;20456;-68
2021/07/29 04:10:23;;;;;;;17.93;15.53;;;15.10;99.90;;;;;;5057639;28;20832;-68
2021/07/29 04:12:51;;;;;;;16.60;15.00;;;15.20;99.90;;;;;;5050829;28;20455;-69
2021/07/29 04:15:18;;;;;;;16.43;15.07;;;15.20;99.90;;;;;;5059954;28;20486;-69
2021/07/29 04:17:45;;;;;;;16.10;14.43;;;15.20;99.90;;;;;;5055822;28;20487;-69
2021/07/29 04:20:12;;;;;;;15.80;14.60;;;15.30;99.90;;;;;;5056611;28;20471;-68
2021/07/29 04:22:38;;;;;;;16.10;14.70;;;15.30;99.90;;;;;;5059813;28;20455;-69
2021/07/29 04:25:06;;;;;;;16.50;14.57;;;15.40;99.90;;;;;;5050600;28;20811;-69
2021/07/29 04:27:34;;;;;;;16.60;15.00;;;15.40;99.90;;;;;;5058702;28;20455;-71
2021/07/29 04:30:02;;;;;;;14.97;13.93;;;15.40;99.90;;;;;;5060673;28;20486;-69
2021/07/29 04:32:34;;;;;;;16.60;14.97;;;15.50;99.90;;;;;;5057483;28;20463;-70
2021/07/29 04:35:02;;;;;;;16.60;15.17;;;15.40;99.90;;;;;;5056823;28;20456;-69
2021/07/29 04:37:30;;;;;;;16.30;14.80;;;15.50;99.90;;;;;;5053768;28;20451;-69
2021/07/29 04:39:57;;;;;;;15.80;14.57;;;15.50;99.90;;;;;;5054993;28;20464;-72
2021/07/29 04:42:24;;;;;;;17.07;15.40;;;15.60;99.90;;;;;;5059186;28;20467;-70
2021/07/29 04:44:51;;;;;;;16.17;14.73;;;15.60;99.90;;;;;;5058391;28;20481;-69
2021/07/29 04:47:19;;;;;;;16.90;15.40;;;15.60;99.90;;;;;;5054879;28;20459;-69
2021/07/29 04:49:46;;;;;;;16.57;15.03;;;15.60;99.90;;;;;;5053003;28;20495;-70
2021/07/29 04:52:12;;;;;;;15.87;14.80;;;15.70;99.90;;;;;;5059211;28;20462;-71
2021/07/29 04:54:39;;;;;;;15.90;14.83;;;15.60;99.90;;;;;;5060088;28;21146;-69
2021/07/29 04:57:06;;;;;;;17.80;14.50;;;15.70;99.90;;;;;;5057419;28;20459;-71
2021/07/29 04:59:33;;;;;;;17.80;15.63;;;15.70;99.90;;;;;;5054043;28;20962;-69
2021/07/29 05:02:00;;;;;;;17.47;15.60;;;15.70;99.90;;;;;;5059060;28;20467;-69
2021/07/29 05:04:28;;;;;;;16.30;15.10;;;15.70;99.90;;;;;;5056907;28;20460;-68
2021/07/29 05:06:56;;;;;;;22.90;14.87;;;15.80;99.90;;;;;;5055695;28;20451;-68
2021/07/29 05:09:22;;;;;;;16.53;15.20;;;15.80;99.90;;;;;;5055520;28;20490;-69
2021/07/29 05:11:49;;;;;;;17.23;15.83;;;15.90;99.90;;;;;;5059064;28;20475;-69
2021/07/29 05:14:16;;;;;;;15.97;14.77;;;15.90;99.90;;;;;;5057034;28;20458;-71
2021/07/29 05:16:43;;;;;;;16.90;15.63;;;16.00;99.90;;;;;;5056997;28;20487;-69
2021/07/29 05:19:10;;;;;;;16.70;15.30;;;16.00;99.90;;;;;;5054750;28;20537;-69
2021/07/29 05:21:39;;;;;;;16.77;15.47;;;15.90;99.90;;;;;;5054658;28;20470;-69
2021/07/29 05:24:07;;;;;;;16.87;15.47;;;15.90;99.90;;;;;;5053989;28;20463;-71
2021/07/29 05:26:34;;;;;;;16.57;15.27;;;15.90;99.90;;;;;;5059994;28;20458;-69
2021/07/29 05:29:01;;;;;;;16.63;15.10;;;15.90;99.90;;;;;;5057084;28;20456;-70
2021/07/29 05:31:28;;;;;;;18.40;17.00;;;15.90;99.90;;;;;;5055814;28;20938;-71
2021/07/29 05:33:55;;;;;;;17.27;15.73;;;15.80;99.90;;;;;;5053939;28;20463;-70
2021/07/29 05:36:22;;;;;;;16.53;15.33;;;15.80;99.90;;;;;;5056822;28;20555;-69
2021/07/29 05:38:52;;;;;;;17.83;16.13;;;15.80;99.90;;;;;;5055823;28;20466;-69
2021/07/29 05:41:19;;;;;;;17.20;15.90;;;15.70;99.90;;;;;;5055230;28;20466;-72
2021/07/29 05:43:46;;;;;;;17.37;15.57;;;15.80;99.90;;;;;;5053248;28;20917;-69
2021/07/29 05:46:14;;;;;;;16.80;15.13;;;15.90;99.90;;;;;;5057330;28;20597;-70
2021/07/29 05:48:41;;;;;;;16.77;15.40;;;15.90;99.90;;;;;;5054097;28;20456;-69
2021/07/29 05:51:08;;;;;;;17.63;16.10;;;16.00;99.90;;;;;;5052784;28;20480;-71
2021/07/29 05:53:36;;;;;;;19.27;15.93;;;16.00;99.90;;;;;;5060294;28;20460;-72
2021/07/29 05:56:06;;;;;;;16.30;15.00;;;15.90;99.90;;;;;;5056303;28;20463;-69
2021/07/29 05:58:34;;;;;;;17.23;15.50;;;15.90;99.90;;;;;;5058215;28;20462;-69
2021/07/29 06:01:08;;;;;;;16.00;14.80;;;15.80;99.90;;;;;;5044550;28;20456;-72
2021/07/29 06:03:35;;;;;;;15.83;14.40;;;15.90;99.90;;;;;;5052445;28;20455;-69
2021/07/29 06:06:02;;;;;;;18.67;17.03;;;15.90;99.90;;;;;;5052372;28;20834;-70
2021/07/29 06:08:29;;;;;;;17.57;15.77;;;15.90;99.90;;;;;;5048625;28;20454;-69
2021/07/29 06:10:57;;;;;;;16.47;14.90;;;15.90;99.90;;;;;;5049255;28;20471;-70
2021/07/29 06:13:26;;;;;;;17.43;15.70;;;15.90;99.90;;;;;;5051008;28;20455;-69
2021/07/29 06:15:52;;;;;;;17.03;15.87;;;16.00;99.90;;;;;;5048773;28;20488;-71
2021/07/29 06:18:23;;;;;;;19.90;16.03;;;16.10;99.90;;;;;;5050883;28;20470;-69
2021/07/29 06:20:50;;;;;;;17.30;15.67;;;16.10;99.90;;;;;;5048670;28;20563;-70
2021/07/29 06:23:17;;;;;;;19.20;16.03;;;16.20;99.90;;;;;;5055240;28;20462;-69
2021/07/29 06:25:44;;;;;;;16.27;15.17;;;16.20;99.90;;;;;;5045554;28;20463;-69
2021/07/29 06:28:14;;;;;;;17.63;15.87;;;16.20;99.90;;;;;;5051520;28;20568;-70
2021/07/29 06:30:44;;;;;;;17.07;15.63;;;16.20;99.90;;;;;;5054540;28;20486;-72
2021/07/29 06:33:11;;;;;;;18.03;16.53;;;16.20;99.90;;;;;;5049558;28;20463;-72
2021/07/29 06:35:38;;;;;;;17.80;16.20;;;16.30;99.90;;;;;;5052689;28;20482;-70
2021/07/29 06:38:05;;;;;;;17.70;16.33;;;16.40;99.90;;;;;;5052069;28;20828;-69
2021/07/29 06:40:33;;;;;;;17.83;16.53;;;16.50;99.90;;;;;;5047826;28;20467;-70
2021/07/29 06:42:59;;;;;;;18.27;16.63;;;16.50;99.90;;;;;;5050423;28;20490;-70
2021/07/29 06:45:27;;;;;;;18.27;16.80;;;16.60;99.90;;;;;;5049935;28;20812;-70
2021/07/29 06:47:55;;;;;;;18.63;17.30;;;16.60;99.90;;;;;;5052736;28;20659;-72
2021/07/29 06:50:22;;;;;;;18.40;17.20;;;16.80;99.90;;;;;;5055235;28;20496;-70
2021/07/29 06:52:48;;;;;;;18.47;16.87;;;16.90;99.90;;;;;;5049166;28;20489;-71
2021/07/29 06:55:15;;;;;;;18.67;17.30;;;17.00;99.90;;;;;;5048583;28;20467;-69
2021/07/29 06:57:42;;;;;;;18.80;17.50;;;17.00;99.90;;;;;;5054143;28;20474;-69
2021/07/29 07:00:10;;;;;;;19.20;17.60;;;17.10;99.90;;;;;;5049316;28;20470;-69
2021/07/29 07:02:37;;;;;;;18.67;17.23;;;17.20;99.90;;;;;;5052446;28;20465;-69
2021/07/29 07:05:06;;;;;;;18.90;17.60;;;17.40;99.90;;;;;;5054333;28;20455;-70
2021/07/29 07:07:33;;;;;;;19.00;17.50;;;17.30;99.90;;;;;;5053597;28;20923;-69
2021/07/29 07:10:00;;;;;;;18.03;16.87;;;17.40;99.90;;;;;;5049222;28;20810;-69
2021/07/29 07:12:27;;;;;;;20.30;18.10;;;17.70;99.90;;;;;;5051816;28;21044;-71
2021/07/29 07:14:54;;;;;;;17.93;16.73;;;17.70;99.90;;;;;;5054214;28;20468;-69
2021/07/29 07:17:20;;;;;;;19.30;17.50;;;17.90;99.90;;;;;;5047169;28;20491;-70
2021/07/29 07:19:49;;;;;;;18.40;17.00;;;17.90;99.90;;;;;;5052704;28;20460;-70
2021/07/29 07:22:17;;;;;;;18.77;17.10;;;18.00;99.90;;;;;;5049342;28;20456;-72
2021/07/29 07:24:45;;;;;;;18.70;17.40;;;18.10;99.90;;;;;;5050188;28;20452;-69
2021/07/29 07:27:12;;;;;;;17.67;16.43;;;18.20;99.90;;;;;;5055782;28;20554;-68
2021/07/29 07:29:40;;;;;;;18.33;17.07;;;18.20;99.90;;;;;;5044906;28;20451;-69
2021/07/29 07:32:07;;;;;;;18.80;17.40;;;18.10;99.90;;;;;;5053374;28;20933;-70
2021/07/29 07:34:34;;;;;;;19.53;17.80;;;18.20;99.90;;;;;;5049494;28;20471;-68
2021/07/29 07:37:01;;;;;;;17.53;16.23;;;18.20;99.90;;;;;;5052770;28;20566;-69
2021/07/29 07:39:31;;;;;;;17.70;16.60;;;18.20;99.90;;;;;;5052830;28;20951;-69
2021/07/29 07:41:58;;;;;;;20.37;18.47;;;18.10;99.90;;;;;;5056747;28;20479;-69
2021/07/29 07:44:25;;;;;;;17.67;16.47;;;18.20;99.90;;;;;;5052492;28;20834;-69
2021/07/29 07:46:52;;;;;;;19.53;17.87;;;18.10;99.90;;;;;;5052589;28;20454;-69
2021/07/29 07:49:19;;;;;;;17.37;16.27;;;18.20;99.90;;;;;;5053503;28;20814;-69
2021/07/29 07:51:46;;;;;;;17.90;16.80;;;18.20;99.90;;;;;;5052773;28;20491;-71
2021/07/29 07:54:13;;;;;;;17.73;16.57;;;18.30;99.90;;;;;;5056912;28;20466;-71
2021/07/29 07:56:44;;;;;;;17.13;15.70;;;18.20;99.90;;;;;;5055685;28;20709;-70
2021/07/29 07:59:11;;;;;;;17.53;16.23;;;18.30;99.90;;;;;;5051835;28;20953;-70
2021/07/29 08:01:41;;;;;;;19.00;17.50;;;18.60;99.90;;;;;;5054216;28;20814;-72
2021/07/29 08:04:08;;;;;;;18.13;16.63;;;18.80;99.90;;;;;;5058456;28;20546;-71
2021/07/29 08:06:36;;;;;;;18.33;16.30;;;18.60;99.90;;;;;;5054814;28;20926;-72
2021/07/29 08:09:02;;;;;;;17.83;16.57;;;18.40;99.90;;;;;;5054623;28;20459;-69
2021/07/29 08:11:29;;;;;;;18.10;16.73;;;18.40;99.90;;;;;;5054943;28;20494;-72
2021/07/29 08:13:58;;;;;;;18.40;17.00;;;18.30;99.90;;;;;;5049619;28;20811;-70
2021/07/29 08:16:25;;;;;;;17.70;16.40;;;18.30;99.90;;;;;;5049720;28;20487;-70
2021/07/29 08:18:53;;;;;;;18.80;17.40;;;18.60;99.90;;;;;;5052834;28;20509;-69
2021/07/29 08:21:21;;;;;;;18.27;16.80;;;18.80;99.90;;;;;;5055686;28;20553;-70
2021/07/29 08:23:49;;;;;;;18.20;16.67;;;19.00;99.90;;;;;;5053643;28;20466;-70
2021/07/29 08:26:17;;;;;;;18.10;16.57;;;19.20;99.90;;;;;;5052636;28;20945;-71
2021/07/29 08:28:44;;;;;;;17.70;16.53;;;19.30;99.90;;;;;;5054144;28;20462;-72
2021/07/29 08:31:14;;;;;;;18.30;16.40;;;19.50;99.90;;;;;;5056771;28;20491;-70
2021/07/29 08:33:42;;;;;;;16.27;15.20;;;20.00;99.90;;;;;;5053639;28;20829;-72
2021/07/29 08:36:14;;;;;;;16.80;15.80;;;20.30;99.90;;;;;;5055205;28;20954;-70
2021/07/29 08:38:41;;;;;;;17.67;16.47;;;20.20;99.90;;;;;;5049419;28;20460;-72
2021/07/29 08:41:09;;;;;;;18.07;16.87;;;19.70;99.90;;;;;;5051638;28;20471;-71
2021/07/29 08:43:36;;;;;;;18.07;16.60;;;19.90;99.90;;;;;;5053051;28;20471;-73
2021/07/29 08:46:04;;;;;;;17.13;15.97;;;20.20;99.90;;;;;;5057491;28;20467;-70
2021/07/29 08:48:35;;;;;;;17.30;16.23;;;20.50;99.90;;;;;;5053024;28;20460;-71
2021/07/29 08:51:02;;;;;;;18.13;17.10;;;20.80;99.90;;;;;;5050039;28;20475;-72
2021/07/29 08:53:30;;;;;;;17.50;16.40;;;21.00;99.90;;;;;;5052494;28;20463;-68
2021/07/29 08:55:57;;;;;;;18.00;16.90;;;21.10;99.90;;;;;;5055173;28;20455;-70
2021/07/29 08:58:23;;;;;;;19.50;17.77;;;21.10;99.90;;;;;;5052867;28;20462;-69
2021/07/29 09:01:04;;;;;;;17.00;16.10;;;20.30;99.90;;;;;;5051816;28;20459;-71
2021/07/29 09:03:34;;;;;;;18.40;17.10;;;19.70;99.90;;;;;;5048924;28;20462;-71
2021/07/29 09:06:05;;;;;;;17.63;16.30;;;20.70;99.90;;;;;;5052459;28;20460;-70
2021/07/29 09:08:43;;;;;;;17.87;16.67;;;21.30;99.90;;;;;;5058246;28;20463;-70
2021/07/29 09:11:29;;;;;;;16.87;15.60;;;21.60;99.90;;;;;;5052696;28;20486;-72
2021/07/29 09:14:08;;;;;;;17.93;16.63;;;21.00;99.90;;;;;;5052652;28;20459;-70
2021/07/29 09:16:38;;;;;;;18.00;16.47;;;20.20;99.90;;;;;;5057068;28;21042;-71
2021/07/29 09:19:07;;;;;;;18.47;17.03;;;20.00;99.90;;;;;;5055572;28;20451;-71
2021/07/29 09:21:34;;;;;;;18.70;16.83;;;19.90;99.90;;;;;;5050846;28;20467;-74
2021/07/29 09:24:06;;;;;;;17.93;16.80;;;20.10;99.90;;;;;;5045304;28;20517;-68
2021/07/29 09:26:57;;;;;;;16.50;15.40;;;20.40;99.90;;;;;;5049124;28;20456;-67
2021/07/29 09:29:26;;;;;;;16.93;15.70;;;20.80;99.90;;;;;;5053485;28;20502;-69
2021/07/29 09:32:05;;;;;;;17.20;15.90;;;20.90;99.90;;;;;;5054091;28;20494;-68
2021/07/29 09:34:47;;;;;;;17.77;16.53;;;20.20;99.90;;;;;;5052676;28;20452;-68
2021/07/29 09:37:15;;;;;;;17.87;16.47;;;19.80;99.90;;;;;;5051018;28;20459;-71
2021/07/29 09:39:43;;;;;;;17.20;16.00;;;20.00;99.90;;;;;;5050902;28;20478;-71
2021/07/29 09:42:21;;;;;;;16.03;15.13;;;20.80;99.90;;;;;;5048554;28;20459;-70
2021/07/29 09:44:50;;;;;;;16.13;14.93;;;21.60;99.90;;;;;;5047695;28;20488;-70
2021/07/29 09:47:18;;;;;;;16.90;15.90;;;21.50;99.90;;;;;;5048372;28;20456;-68
2021/07/29 09:49:47;;;;;;;15.97;14.70;;;21.10;99.90;;;;;;5049765;28;21103;-70
2021/07/29 09:52:15;;;;;;;16.17;14.97;;;21.30;99.90;;;;;;5050389;28;20970;-68
2021/07/29 09:54:45;;;;;;;16.70;15.40;;;21.00;99.90;;;;;;5049934;28;20467;-68
2021/07/29 09:57:12;;;;;;;17.40;16.07;;;21.50;99.90;;;;;;5050498;28;20485;-68
2021/07/29 09:59:40;;;;;;;16.00;15.07;;;22.30;99.90;;;;;;5055281;28;20786;-68
2021/07/29 10:02:08;;;;;;;16.60;15.20;;;22.60;99.90;;;;;;5057288;28;20455;-68
2021/07/29 10:04:40;;;;;;;17.13;16.00;;;22.70;99.90;;;;;;5053029;28;20555;-71
2021/07/29 10:07:14;;;;;;;16.27;14.87;;;22.60;99.90;;;;;;5046673;28;20510;-68
2021/07/29 10:09:46;;;;;;;16.80;15.60;;;23.10;99.90;;;;;;5049863;28;20972;-68
2021/07/29 10:12:20;;;;;;;16.10;15.00;;;23.30;99.90;;;;;;5054166;28;20821;-69
2021/07/29 10:14:52;;;;;;;16.13;14.87;;;23.60;99.90;;;;;;5054715;28;20972;-70
2021/07/29 10:17:39;;;;;;;15.43;14.50;;;24.20;99.90;;;;;;5052923;28;20899;-68
2021/07/29 10:20:20;;;;;;;15.07;14.07;;;24.30;99.90;;;;;;5052128;28;20544;-68
2021/07/29 10:22:50;;;;;;;16.80;15.30;;;23.70;99.90;;;;;;5050300;28;20562;-67
2021/07/29 10:25:17;;;;;;;16.47;15.30;;;23.50;99.90;;;;;;5054091;28;20459;-67
2021/07/29 10:28:17;;;;;;;21.60;14.20;;;23.70;99.90;;;;;;5048686;28;20459;-70
2021/07/29 10:30:54;;;;;;;15.27;14.17;;;23.70;99.90;;;;;;5052860;28;20475;-67
2021/07/29 10:33:23;;;;;;;16.53;14.97;;;23.60;99.90;;;;;;5049640;28;20463;-67
2021/07/29 10:35:50;;;;;;;15.40;14.50;;;23.90;99.90;;;;;;5054027;28;20558;-68
2021/07/29 10:38:43;;;;;;;16.40;14.73;;;23.60;99.90;;;;;;5045065;28;20938;-66
2021/07/29 10:41:41;;;;;;;16.17;15.10;;;24.40;99.90;;;;;;5047651;28;20451;-67
2021/07/29 10:44:10;;;;;;;16.43;15.20;;;24.80;99.90;;;;;;5055054;28;20480;-67
2021/07/29 10:47:02;;;;;;;15.60;14.50;;;25.30;99.90;;;;;;5050018;28;20953;-67
2021/07/29 10:50:19;;;;;;;16.77;15.20;;;25.30;99.90;;;;;;5052861;28;20484;-71
2021/07/29 10:52:49;;;;;;;17.10;16.10;;;23.80;99.90;;;;;;5049370;28;20809;-69
2021/07/29 10:55:18;;;;;;;16.17;15.07;;;23.80;99.90;;;;;;5052835;28;20829;-67
2021/07/29 10:58:13;;;;;;;16.17;15.07;;;23.80;99.90;;;;;;5047720;28;20538;-67
2021/07/29 11:00:40;;;;;;;16.43;15.57;;;24.20;99.90;;;;;;5020156;28;20451;-69
2021/07/29 11:03:24;;;;;;;16.67;15.53;;;24.30;99.90;;;;;;5049701;28;20538;-68
2021/07/29 11:06:03;;;;;;;16.63;15.53;;;24.40;99.90;;;;;;5044025;28;20995;-69
2021/07/29 11:08:30;;;;;;;16.10;14.80;;;25.30;99.90;;;;;;5055165;28;20459;-67
2021/07/29 11:11:04;;;;;;;17.93;15.07;;;25.60;99.40;;;;;;5048132;28;20939;-69
2021/07/29 11:13:34;;;;;;;16.13;15.13;;;25.30;99.90;;;;;;5053674;28;20945;-67
2021/07/29 11:16:02;;;;;;;15.73;14.67;;;25.10;99.80;;;;;;5055279;28;20486;-67
2021/07/29 11:18:30;;;;;;;16.47;15.37;;;24.90;99.80;;;;;;5055724;28;20573;-70
2021/07/29 11:20:57;;;;;;;16.30;15.00;;;24.50;99.90;;;;;;5051399;28;20459;-68
2021/07/29 11:23:34;;;;;;;16.27;15.07;;;24.20;98.80;;;;;;5050094;28;20455;-67
2021/07/29 11:26:03;;;;;;;15.90;14.90;;;24.80;99.10;;;;;;5055303;28;20560;-70
2021/07/29 11:28:30;;;;;;;15.40;14.50;;;24.50;98.30;;;;;;5053117;28;20462;-68
2021/07/29 11:30:57;;;;;;;15.60;14.30;;;24.20;99.90;;;;;;5057446;28;20541;-67
2021/07/29 11:33:26;;;;;;;15.20;14.10;;;24.60;99.50;;;;;;5055909;28;20463;-67
2021/07/29 11:35:54;;;;;;;16.40;14.90;;;23.60;99.70;;;;;;5058372;28;20459;-67
2021/07/29 11:38:23;;;;;;;16.23;14.73;;;23.70;99.90;;;;;;5053857;28;20972;-70
2021/07/29 11:41:00;;;;;;;16.23;14.97;;;24.40;99.90;;;;;;5055709;28;20464;-70
2021/07/29 11:43:32;;;;;;;15.17;14.13;;;25.10;99.90;;;;;;5054321;28;20509;-68
2021/07/29 11:46:10;;;;;;;15.60;14.27;;;25.70;99.90;;;;;;5051373;28;20458;-68
2021/07/29 11:48:37;;;;;;;15.70;14.70;;;26.10;99.90;;;;;;5049116;28;20982;-70
2021/07/29 11:51:14;;;;;;;15.77;14.67;;;26.30;98.50;;;;;;5061113;28;20480;-68
2021/07/29 11:53:42;;;;;;;14.97;14.07;;;27.10;98.40;;;;;;5054399;28;20517;-68
2021/07/29 11:56:10;;;;;;;15.47;14.50;;;26.50;96.30;;;;;;5057920;28;20468;-68
2021/07/29 11:58:39;;;;;;;15.50;14.50;;;25.60;97.10;;;;;;5054985;28;20470;-68
2021/07/29 12:01:11;;;;;;;15.20;14.17;;;25.30;97.70;;;;;;5053557;28;20459;-70
2021/07/29 12:03:42;;;;;;;16.27;15.17;;;24.50;96.60;;;;;;5048436;28;20465;-68
2021/07/29 12:06:11;;;;;;;18.00;16.10;;;23.90;97.20;;;;;;5056048;28;20456;-68
2021/07/29 12:08:41;;;;;;;15.40;14.53;;;23.60;98.50;;;;;;5054293;28;20459;-68
2021/07/29 12:11:08;;;;;;;14.73;13.90;;;23.50;98.70;;;;;;5055211;28;20456;-68
2021/07/29 12:13:39;;;;;;;15.87;14.67;;;23.00;99.30;;;;;;5051299;28;20464;-68
2021/07/29 12:16:07;;;;;;;15.97;14.67;;;23.70;99.50;;;;;;5053875;28;21000;-68
2021/07/29 12:18:34;;;;;;;15.40;14.50;;;24.60;97.90;;;;;;5051972;28;20518;-68
2021/07/29 12:21:02;;;;;;;15.27;14.30;;;25.00;95.90;;;;;;5050165;28;20986;-69
2021/07/29 12:23:30;;;;;;;15.87;14.87;;;25.40;96.20;;;;;;5049003;28;20459;-70
2021/07/29 12:26:10;;;;;;;15.57;14.50;;;25.50;96.10;;;;;;5054389;28;21000;-70
2021/07/29 12:28:42;;;;;;;15.13;14.30;;;25.50;95.00;;;;;;5061113;28;20478;-68
2021/07/29 12:31:21;;;;;;;16.07;14.87;;;25.00;95.70;;;;;;5064499;28;20481;-70
2021/07/29 12:33:49;;;;;;;15.50;14.40;;;25.10;96.60;;;;;;5053002;28;20931;-69
2021/07/29 12:36:17;;;;;;;15.70;14.60;;;25.10;96.30;;;;;;5050179;28;20483;-68
2021/07/29 12:38:44;;;;;;;15.80;14.63;;;23.50;96.80;;;;;;5054175;28;20513;-69